sensor_id;sensor_type;location;lat;lon;timestamp;pressure;altitude;pressure_sealevel;temperature;humidity
44103;BME280;29769;42.178;24.742;2022-09-09T00:05:00;99812.41;;;18.00;100.00
44103;BME280;29769;42.178;24.742;2022-09-09T00:07:47;99824.38;;;17.90;100.00
44103;BME280;29769;42.178;24.742;2022-09-09T00:10:34;99823.78;;;17.84;100.00
44103;BME280;29769;42.178;24.742;2022-09-09T00:13:41;99819.44;;;17.81;100.00
44103;BME280;29769;42.178;24.742;2022-09-09T00:16:29;99826.16;;;17.69;100.00
44103;BME280;29769;42.178;24.742;2022-09-09T00:19:21;99812.03;;;17.67;100.00
44103;BME280;29769;42.178;24.742;2022-09-09T00:25:01;99817.94;;;17.32;100.00
44103;BME280;29769;42.178;24.742;2022-09-09T00:27:49;99824.69;;;17.19;100.00
44103;BME280;29769;42.178;24.742;2022-09-09T00:30:35;99822.44;;;17.08;100.00
44103;BME280;29769;42.178;24.742;2022-09-09T00:33:24;99840.06;;;17.11;100.00
44103;BME280;29769;42.178;24.742;2022-09-09T00:36:15;99838.09;;;17.16;100.00
44103;BME280;29769;42.178;24.742;2022-09-09T00:39:02;99844.16;;;17.19;100.00
44103;BME280;29769;42.178;24.742;2022-09-09T00:41:55;99839.41;;;17.27;100.00
44103;BME280;29769;42.178;24.742;2022-09-09T00:50:25;99833.09;;;17.30;100.00
44103;BME280;29769;42.178;24.742;2022-09-09T01:01:53;99831.78;;;17.40;100.00
44103;BME280;29769;42.178;24.742;2022-09-09T01:04:38;99831.91;;;17.37;100.00
44103;BME280;29769;42.178;24.742;2022-09-09T01:07:23;99830.25;;;17.34;100.00
44103;BME280;29769;42.178;24.742;2022-09-09T01:10:11;99833.34;;;17.24;100.00
44103;BME280;29769;42.178;24.742;2022-09-09T01:13:02;99837.19;;;17.17;100.00
44103;BME280;29769;42.178;24.742;2022-09-09T01:15:50;99836.72;;;17.06;100.00
44103;BME280;29769;42.178;24.742;2022-09-09T01:18:38;99832.59;;;16.99;100.00
44103;BME280;29769;42.178;24.742;2022-09-09T01:27:34;99840.78;;;16.93;100.00
44103;BME280;29769;42.178;24.742;2022-09-09T01:30:20;99838.13;;;16.93;100.00
44103;BME280;29769;42.178;24.742;2022-09-09T01:33:07;99838.25;;;16.89;100.00
44103;BME280;29769;42.178;24.742;2022-09-09T01:38:53;99830.38;;;16.86;100.00
44103;BME280;29769;42.178;24.742;2022-09-09T01:41:38;99825.38;;;16.79;100.00
44103;BME280;29769;42.178;24.742;2022-09-09T01:44:27;99826.69;;;16.67;100.00
44103;BME280;29769;42.178;24.742;2022-09-09T01:47:13;99824.22;;;16.63;100.00
44103;BME280;29769;42.178;24.742;2022-09-09T01:50:14;99823.56;;;16.58;100.00
44103;BME280;29769;42.178;24.742;2022-09-09T01:52:59;99820.91;;;16.56;100.00
44103;BME280;29769;42.178;24.742;2022-09-09T01:55:52;99826.03;;;16.62;100.00
44103;BME280;29769;42.178;24.742;2022-09-09T02:07:39;99828.66;;;16.85;100.00
44103;BME280;29769;42.178;24.742;2022-09-09T02:10:30;99818.63;;;16.94;100.00
44103;BME280;29769;42.178;24.742;2022-09-09T02:13:28;99821.38;;;16.90;100.00
44103;BME280;29769;42.178;24.742;2022-09-09T02:19:18;99823.56;;;16.56;100.00
44103;BME280;29769;42.178;24.742;2022-09-09T02:22:19;99819.34;;;16.51;100.00
44103;BME280;29769;42.178;24.742;2022-09-09T02:25:07;99812.84;;;16.59;100.00
44103;BME280;29769;42.178;24.742;2022-09-09T02:27:53;99818.00;;;16.64;100.00
44103;BME280;29769;42.178;24.742;2022-09-09T02:30:39;99823.31;;;16.64;100.00
44103;BME280;29769;42.178;24.742;2022-09-09T02:33:26;99821.50;;;16.64;100.00
44103;BME280;29769;42.178;24.742;2022-09-09T02:36:12;99824.00;;;16.69;100.00
44103;BME280;29769;42.178;24.742;2022-09-09T02:39:00;99829.09;;;16.75;100.00
44103;BME280;29769;42.178;24.742;2022-09-09T02:41:49;99829.81;;;16.78;100.00
44103;BME280;29769;42.178;24.742;2022-09-09T02:44:34;99823.34;;;16.85;100.00
44103;BME280;29769;42.178;24.742;2022-09-09T02:53:04;99831.19;;;16.42;100.00
44103;BME280;29769;42.178;24.742;2022-09-09T02:56:14;99840.56;;;16.02;100.00
44103;BME280;29769;42.178;24.742;2022-09-09T02:58:59;99849.16;;;15.84;100.00
44103;BME280;29769;42.178;24.742;2022-09-09T03:01:44;99848.19;;;15.87;100.00
44103;BME280;29769;42.178;24.742;2022-09-09T03:04:30;99842.53;;;15.97;100.00
44103;BME280;29769;42.178;24.742;2022-09-09T03:07:16;99841.31;;;16.06;100.00
44103;BME280;29769;42.178;24.742;2022-09-09T03:10:03;99841.88;;;16.16;100.00
44103;BME280;29769;42.178;24.742;2022-09-09T03:12:48;99837.34;;;16.18;100.00
44103;BME280;29769;42.178;24.742;2022-09-09T03:15:34;99834.63;;;16.21;100.00
44103;BME280;29769;42.178;24.742;2022-09-09T03:18:19;99845.13;;;16.24;100.00
44103;BME280;29769;42.178;24.742;2022-09-09T03:21:08;99842.41;;;16.25;100.00
44103;BME280;29769;42.178;24.742;2022-09-09T03:23:54;99853.84;;;16.02;100.00
44103;BME280;29769;42.178;24.742;2022-09-09T03:26:40;99853.69;;;15.81;100.00
44103;BME280;29769;42.178;24.742;2022-09-09T03:29:28;99855.06;;;15.92;100.00
44103;BME280;29769;42.178;24.742;2022-09-09T03:32:15;99859.00;;;15.81;100.00
44103;BME280;29769;42.178;24.742;2022-09-09T03:35:02;99871.47;;;15.79;100.00
44103;BME280;29769;42.178;24.742;2022-09-09T03:37:47;99872.41;;;15.76;100.00
44103;BME280;29769;42.178;24.742;2022-09-09T03:40:32;99868.59;;;15.85;100.00
44103;BME280;29769;42.178;24.742;2022-09-09T03:43:17;99867.09;;;15.76;100.00
44103;BME280;29769;42.178;24.742;2022-09-09T03:46:02;99877.25;;;15.64;100.00
44103;BME280;29769;42.178;24.742;2022-09-09T03:48:48;99871.81;;;15.68;100.00
44103;BME280;29769;42.178;24.742;2022-09-09T03:51:33;99868.44;;;15.63;100.00
44103;BME280;29769;42.178;24.742;2022-09-09T03:54:21;99866.66;;;15.64;100.00
44103;BME280;29769;42.178;24.742;2022-09-09T03:57:06;99863.97;;;15.65;100.00
44103;BME280;29769;42.178;24.742;2022-09-09T03:59:51;99863.97;;;15.65;100.00
44103;BME280;29769;42.178;24.742;2022-09-09T04:02:35;99857.28;;;15.80;100.00
44103;BME280;29769;42.178;24.742;2022-09-09T04:05:20;99866.13;;;15.80;100.00
44103;BME280;29769;42.178;24.742;2022-09-09T04:08:06;99858.94;;;15.82;100.00
44103;BME280;29769;42.178;24.742;2022-09-09T04:10:51;99868.34;;;15.92;100.00
44103;BME280;29769;42.178;24.742;2022-09-09T04:13:37;99868.13;;;15.98;100.00
44103;BME280;29769;42.178;24.742;2022-09-09T04:16:25;99861.81;;;16.02;100.00
44103;BME280;29769;42.178;24.742;2022-09-09T04:19:10;99860.53;;;16.13;100.00
44103;BME280;29769;42.178;24.742;2022-09-09T04:21:56;99852.09;;;16.26;100.00
44103;BME280;29769;42.178;24.742;2022-09-09T04:24:41;99844.41;;;16.43;100.00
44103;BME280;29769;42.178;24.742;2022-09-09T04:27:26;99845.84;;;16.52;100.00
44103;BME280;29769;42.178;24.742;2022-09-09T04:30:12;99845.47;;;16.63;100.00
44103;BME280;29769;42.178;24.742;2022-09-09T04:32:58;99847.72;;;16.73;100.00
44103;BME280;29769;42.178;24.742;2022-09-09T04:35:46;99847.59;;;16.76;100.00
44103;BME280;29769;42.178;24.742;2022-09-09T04:38:33;99850.84;;;16.84;100.00
44103;BME280;29769;42.178;24.742;2022-09-09T04:41:19;99860.13;;;16.96;100.00
44103;BME280;29769;42.178;24.742;2022-09-09T04:44:07;99864.00;;;17.11;100.00
44103;BME280;29769;42.178;24.742;2022-09-09T04:46:51;99875.38;;;17.14;100.00
44103;BME280;29769;42.178;24.742;2022-09-09T04:49:36;99875.06;;;17.22;100.00
44103;BME280;29769;42.178;24.742;2022-09-09T04:52:21;99880.13;;;17.06;100.00
44103;BME280;29769;42.178;24.742;2022-09-09T04:55:06;99879.25;;;17.06;100.00
44103;BME280;29769;42.178;24.742;2022-09-09T04:57:51;99881.88;;;17.07;100.00
44103;BME280;29769;42.178;24.742;2022-09-09T05:00:35;99887.97;;;17.09;100.00
44103;BME280;29769;42.178;24.742;2022-09-09T05:03:23;99883.91;;;17.22;100.00
44103;BME280;29769;42.178;24.742;2022-09-09T05:06:12;99877.72;;;17.22;100.00
44103;BME280;29769;42.178;24.742;2022-09-09T05:08:57;99882.47;;;17.35;100.00
44103;BME280;29769;42.178;24.742;2022-09-09T05:11:45;99884.34;;;17.55;100.00
44103;BME280;29769;42.178;24.742;2022-09-09T05:14:52;99887.47;;;17.88;100.00
44103;BME280;29769;42.178;24.742;2022-09-09T05:17:37;99876.31;;;18.20;100.00
44103;BME280;29769;42.178;24.742;2022-09-09T05:20:22;99869.97;;;18.43;100.00
44103;BME280;29769;42.178;24.742;2022-09-09T05:23:07;99877.25;;;18.60;100.00
44103;BME280;29769;42.178;24.742;2022-09-09T05:25:56;99870.44;;;19.10;100.00
44103;BME280;29769;42.178;24.742;2022-09-09T05:28:41;99859.69;;;19.49;100.00
44103;BME280;29769;42.178;24.742;2022-09-09T05:31:25;99872.84;;;19.71;100.00
44103;BME280;29769;42.178;24.742;2022-09-09T05:34:13;99878.56;;;19.81;97.96
44103;BME280;29769;42.178;24.742;2022-09-09T05:36:58;99877.38;;;19.52;98.35
44103;BME280;29769;42.178;24.742;2022-09-09T05:39:44;99877.19;;;19.55;99.22
44103;BME280;29769;42.178;24.742;2022-09-09T05:42:30;99869.50;;;19.85;94.75
44103;BME280;29769;42.178;24.742;2022-09-09T05:45:15;99876.16;;;20.28;92.10
44103;BME280;29769;42.178;24.742;2022-09-09T05:48:00;99874.50;;;20.93;88.07
44103;BME280;29769;42.178;24.742;2022-09-09T05:50:52;99874.34;;;21.11;84.03
44103;BME280;29769;42.178;24.742;2022-09-09T05:53:36;99866.84;;;21.49;82.67
44103;BME280;29769;42.178;24.742;2022-09-09T05:56:23;99868.28;;;21.86;77.53
44103;BME280;29769;42.178;24.742;2022-09-09T05:59:09;99868.56;;;21.97;76.67
44103;BME280;29769;42.178;24.742;2022-09-09T06:01:54;99875.72;;;21.81;76.65
44103;BME280;29769;42.178;24.742;2022-09-09T06:04:48;99867.88;;;22.08;76.56
44103;BME280;29769;42.178;24.742;2022-09-09T06:07:33;99852.97;;;22.48;73.33
44103;BME280;29769;42.178;24.742;2022-09-09T06:10:17;99854.06;;;21.70;76.63
44103;BME280;29769;42.178;24.742;2022-09-09T06:13:02;99850.28;;;21.27;78.70
44103;BME280;29769;42.178;24.742;2022-09-09T06:15:51;99850.38;;;22.02;75.32
44103;BME280;29769;42.178;24.742;2022-09-09T06:18:36;99852.47;;;22.55;72.76
44103;BME280;29769;42.178;24.742;2022-09-09T06:21:22;99848.41;;;22.20;71.85
44103;BME280;29769;42.178;24.742;2022-09-09T06:24:08;99844.25;;;22.58;70.95
44103;BME280;29769;42.178;24.742;2022-09-09T06:26:54;99841.06;;;23.23;68.15
44103;BME280;29769;42.178;24.742;2022-09-09T06:29:45;99845.13;;;23.42;65.79
44103;BME280;29769;42.178;24.742;2022-09-09T06:32:30;99848.06;;;24.06;63.75
44103;BME280;29769;42.178;24.742;2022-09-09T06:35:17;99848.22;;;23.51;63.96
44103;BME280;29769;42.178;24.742;2022-09-09T06:38:02;99861.63;;;22.81;69.16
44103;BME280;29769;42.178;24.742;2022-09-09T06:40:55;99821.00;;;22.87;67.64
44103;BME280;29769;42.178;24.742;2022-09-09T06:43:41;99862.22;;;23.27;67.28
44103;BME280;29769;42.178;24.742;2022-09-09T06:46:27;99855.78;;;23.44;65.82
44103;BME280;29769;42.178;24.742;2022-09-09T06:49:13;99861.78;;;23.88;64.10
44103;BME280;29769;42.178;24.742;2022-09-09T06:51:59;99865.59;;;24.11;62.74
44103;BME280;29769;42.178;24.742;2022-09-09T06:54:45;99856.03;;;24.07;62.54
44103;BME280;29769;42.178;24.742;2022-09-09T06:57:31;99861.88;;;24.26;62.52
44103;BME280;29769;42.178;24.742;2022-09-09T07:00:16;99860.72;;;25.55;58.83
44103;BME280;29769;42.178;24.742;2022-09-09T07:03:02;99858.75;;;26.05;55.51
44103;BME280;29769;42.178;24.742;2022-09-09T07:05:54;99856.91;;;25.82;56.06
44103;BME280;29769;42.178;24.742;2022-09-09T07:08:40;99852.22;;;26.99;52.42
44103;BME280;29769;42.178;24.742;2022-09-09T07:11:27;99851.13;;;28.31;47.90
44103;BME280;29769;42.178;24.742;2022-09-09T07:14:13;99848.50;;;28.20;45.94
44103;BME280;29769;42.178;24.742;2022-09-09T07:17:00;99843.31;;;28.17;45.92
44103;BME280;29769;42.178;24.742;2022-09-09T07:19:49;99848.22;;;28.23;45.77
44103;BME280;29769;42.178;24.742;2022-09-09T07:22:35;99846.59;;;29.63;42.89
44103;BME280;29769;42.178;24.742;2022-09-09T07:25:20;99853.47;;;29.57;41.74
44103;BME280;29769;42.178;24.742;2022-09-09T07:28:06;99844.63;;;31.07;38.86
44103;BME280;29769;42.178;24.742;2022-09-09T07:30:59;99847.41;;;31.25;38.02
44103;BME280;29769;42.178;24.742;2022-09-09T07:33:46;99845.78;;;31.59;37.01
44103;BME280;29769;42.178;24.742;2022-09-09T07:36:31;99842.31;;;32.63;35.00
44103;BME280;29769;42.178;24.742;2022-09-09T07:39:18;99842.59;;;32.78;34.43
44103;BME280;29769;42.178;24.742;2022-09-09T07:42:07;99842.00;;;32.05;35.89
44103;BME280;29769;42.178;24.742;2022-09-09T07:44:54;99842.59;;;32.35;35.21
44103;BME280;29769;42.178;24.742;2022-09-09T07:47:40;99833.28;;;32.19;35.37
44103;BME280;29769;42.178;24.742;2022-09-09T07:50:27;99837.13;;;33.12;33.92
44103;BME280;29769;42.178;24.742;2022-09-09T07:53:12;99834.97;;;33.66;32.76
44103;BME280;29769;42.178;24.742;2022-09-09T07:56:02;99826.56;;;33.09;33.62
44103;BME280;29769;42.178;24.742;2022-09-09T07:58:47;99827.72;;;33.32;32.80
44103;BME280;29769;42.178;24.742;2022-09-09T08:01:35;99828.66;;;33.65;31.86
44103;BME280;29769;42.178;24.742;2022-09-09T08:04:24;99825.66;;;34.41;31.02
44103;BME280;29769;42.178;24.742;2022-09-09T08:07:09;99820.81;;;35.70;29.67
44103;BME280;29769;42.178;24.742;2022-09-09T08:10:02;99817.50;;;36.57;28.30
44103;BME280;29769;42.178;24.742;2022-09-09T08:12:49;99819.00;;;37.12;27.31
44103;BME280;29769;42.178;24.742;2022-09-09T08:15:34;99810.88;;;37.90;26.10
44103;BME280;29769;42.178;24.742;2022-09-09T08:18:19;99813.56;;;38.26;25.35
44103;BME280;29769;42.178;24.742;2022-09-09T08:21:08;99812.06;;;37.30;26.26
44103;BME280;29769;42.178;24.742;2022-09-09T08:23:56;99827.16;;;35.62;27.61
44103;BME280;29769;42.178;24.742;2022-09-09T08:26:42;99811.09;;;35.90;27.74
44103;BME280;29769;42.178;24.742;2022-09-09T08:29:29;99812.22;;;36.93;26.71
44103;BME280;29769;42.178;24.742;2022-09-09T08:32:13;99798.09;;;36.96;26.97
44103;BME280;29769;42.178;24.742;2022-09-09T08:34:58;99805.00;;;35.10;28.94
44103;BME280;29769;42.178;24.742;2022-09-09T08:37:43;99799.72;;;35.78;28.11
44103;BME280;29769;42.178;24.742;2022-09-09T08:40:29;99801.13;;;35.43;28.45
44103;BME280;29769;42.178;24.742;2022-09-09T08:43:17;99789.81;;;34.36;29.97
44103;BME280;29769;42.178;24.742;2022-09-09T08:46:14;99788.66;;;32.90;32.02
44103;BME280;29769;42.178;24.742;2022-09-09T08:49:18;99805.84;;;32.56;32.76
44103;BME280;29769;42.178;24.742;2022-09-09T08:52:08;99793.50;;;34.84;29.50
44103;BME280;29769;42.178;24.742;2022-09-09T08:54:58;99786.22;;;35.77;28.31
44103;BME280;29769;42.178;24.742;2022-09-09T08:57:43;99784.31;;;37.19;26.68
44103;BME280;29769;42.178;24.742;2022-09-09T09:00:37;99784.91;;;38.91;24.50
44103;BME280;29769;42.178;24.742;2022-09-09T09:09:26;99783.06;;;41.16;21.72
44103;BME280;29769;42.178;24.742;2022-09-09T09:12:18;99778.13;;;40.48;21.91
44103;BME280;29769;42.178;24.742;2022-09-09T09:15:08;99778.97;;;39.35;23.28
44103;BME280;29769;42.178;24.742;2022-09-09T09:17:55;99769.41;;;40.31;22.70
44103;BME280;29769;42.178;24.742;2022-09-09T09:23:49;99763.81;;;41.86;21.20
44103;BME280;29769;42.178;24.742;2022-09-09T09:26:37;99753.16;;;43.00;19.80
44103;BME280;29769;42.178;24.742;2022-09-09T09:29:25;99749.28;;;43.56;19.21
44103;BME280;29769;42.178;24.742;2022-09-09T09:32:11;99744.44;;;40.19;22.21
44103;BME280;29769;42.178;24.742;2022-09-09T09:34:58;99740.91;;;38.56;23.98
44103;BME280;29769;42.178;24.742;2022-09-09T09:37:43;99745.38;;;37.87;24.49
44103;BME280;29769;42.178;24.742;2022-09-09T09:40:31;99739.56;;;38.46;24.32
44103;BME280;29769;42.178;24.742;2022-09-09T09:43:22;99735.78;;;39.35;23.64
44103;BME280;29769;42.178;24.742;2022-09-09T09:46:21;99734.41;;;40.51;22.13
44103;BME280;29769;42.178;24.742;2022-09-09T09:49:08;99731.72;;;42.34;20.61
44103;BME280;29769;42.178;24.742;2022-09-09T09:51:59;99729.81;;;41.85;20.83
44103;BME280;29769;42.178;24.742;2022-09-09T09:54:44;99722.16;;;41.81;20.56
44103;BME280;29769;42.178;24.742;2022-09-09T09:57:29;99725.81;;;42.31;19.99
44103;BME280;29769;42.178;24.742;2022-09-09T10:00:18;99721.81;;;42.88;20.18
44103;BME280;29769;42.178;24.742;2022-09-09T10:03:22;99724.38;;;43.37;19.51
44103;BME280;29769;42.178;24.742;2022-09-09T10:06:08;99717.09;;;43.96;19.25
44103;BME280;29769;42.178;24.742;2022-09-09T10:08:52;99702.94;;;45.02;18.18
44103;BME280;29769;42.178;24.742;2022-09-09T10:11:57;99699.22;;;45.82;17.40
44103;BME280;29769;42.178;24.742;2022-09-09T10:21:02;99686.06;;;42.50;20.02
44103;BME280;29769;42.178;24.742;2022-09-09T10:55:35;99660.06;;;41.27;22.15
44103;BME280;29769;42.178;24.742;2022-09-09T11:04:35;99665.84;;;42.31;21.18
44103;BME280;29769;42.178;24.742;2022-09-09T11:07:46;99662.47;;;42.29;20.81
44103;BME280;29769;42.178;24.742;2022-09-09T11:10:37;99666.03;;;43.62;19.65
44103;BME280;29769;42.178;24.742;2022-09-09T11:22:25;99644.16;;;44.65;18.76
44103;BME280;29769;42.178;24.742;2022-09-09T11:31:16;99627.94;;;44.11;19.41
44103;BME280;29769;42.178;24.742;2022-09-09T11:43:04;99619.53;;;44.57;18.82
44103;BME280;29769;42.178;24.742;2022-09-09T11:45:54;99625.25;;;44.91;18.37
44103;BME280;29769;42.178;24.742;2022-09-09T11:48:56;99621.00;;;43.67;19.25
44103;BME280;29769;42.178;24.742;2022-09-09T11:51:41;99620.09;;;41.05;21.77
44103;BME280;29769;42.178;24.742;2022-09-09T11:54:30;99609.47;;;40.64;22.27
44103;BME280;29769;42.178;24.742;2022-09-09T11:57:25;99605.13;;;40.81;22.03
44103;BME280;29769;42.178;24.742;2022-09-09T12:00:27;99595.13;;;40.86;22.28
44103;BME280;29769;42.178;24.742;2022-09-09T12:06:19;99600.56;;;40.62;22.38
44103;BME280;29769;42.178;24.742;2022-09-09T12:17:53;99577.44;;;42.91;20.22
44103;BME280;29769;42.178;24.742;2022-09-09T12:20:37;99573.81;;;42.79;20.30
44103;BME280;29769;42.178;24.742;2022-09-09T12:29:18;99572.69;;;40.12;22.92
44103;BME280;29769;42.178;24.742;2022-09-09T12:32:18;99564.09;;;39.82;23.52
44103;BME280;29769;42.178;24.742;2022-09-09T12:35:24;99562.97;;;38.98;24.01
44103;BME280;29769;42.178;24.742;2022-09-09T12:38:12;99561.25;;;38.30;25.08
44103;BME280;29769;42.178;24.742;2022-09-09T12:40:58;99557.25;;;37.63;25.79
44103;BME280;29769;42.178;24.742;2022-09-09T12:43:44;99554.50;;;37.63;26.08
44103;BME280;29769;42.178;24.742;2022-09-09T12:46:36;99551.97;;;36.77;27.29
44103;BME280;29769;42.178;24.742;2022-09-09T12:52:14;99545.28;;;35.99;29.00
44103;BME280;29769;42.178;24.742;2022-09-09T12:55:02;99537.59;;;34.60;30.43
44103;BME280;29769;42.178;24.742;2022-09-09T12:57:48;99536.84;;;34.43;30.90
44103;BME280;29769;42.178;24.742;2022-09-09T13:00:36;99532.78;;;34.70;30.54
44103;BME280;29769;42.178;24.742;2022-09-09T13:03:20;99523.75;;;35.67;29.63
44103;BME280;29769;42.178;24.742;2022-09-09T13:06:12;99519.94;;;36.41;28.55
44103;BME280;29769;42.178;24.742;2022-09-09T13:08:59;99523.84;;;36.53;28.14
44103;BME280;29769;42.178;24.742;2022-09-09T13:11:49;99524.97;;;36.23;28.73
44103;BME280;29769;42.178;24.742;2022-09-09T13:14:35;99524.31;;;35.77;29.32
44103;BME280;29769;42.178;24.742;2022-09-09T13:17:25;99516.66;;;34.52;30.78
44103;BME280;29769;42.178;24.742;2022-09-09T13:20:18;99505.78;;;35.12;30.33
44103;BME280;29769;42.178;24.742;2022-09-09T13:23:03;99501.81;;;36.26;28.58
44103;BME280;29769;42.178;24.742;2022-09-09T13:25:55;99504.19;;;37.07;27.35
44103;BME280;29769;42.178;24.742;2022-09-09T13:28:40;99504.09;;;36.22;28.43
44103;BME280;29769;42.178;24.742;2022-09-09T13:31:28;99507.56;;;35.57;29.32
44103;BME280;29769;42.178;24.742;2022-09-09T13:34:13;99507.41;;;36.03;28.97
44103;BME280;29769;42.178;24.742;2022-09-09T13:36:59;99495.34;;;36.12;28.47
44103;BME280;29769;42.178;24.742;2022-09-09T13:39:50;99486.94;;;36.14;28.80
44103;BME280;29769;42.178;24.742;2022-09-09T13:42:38;99479.19;;;36.02;29.11
44103;BME280;29769;42.178;24.742;2022-09-09T13:45:26;99477.50;;;35.43;30.06
44103;BME280;29769;42.178;24.742;2022-09-09T13:48:17;99479.31;;;35.65;29.64
44103;BME280;29769;42.178;24.742;2022-09-09T13:51:03;99473.22;;;35.25;30.17
44103;BME280;29769;42.178;24.742;2022-09-09T13:53:52;99476.31;;;35.75;29.55
44103;BME280;29769;42.178;24.742;2022-09-09T13:56:36;99482.69;;;35.82;29.72
44103;BME280;29769;42.178;24.742;2022-09-09T13:59:22;99471.13;;;34.90;31.04
44103;BME280;29769;42.178;24.742;2022-09-09T14:02:08;99470.69;;;34.56;31.48
44103;BME280;29769;42.178;24.742;2022-09-09T14:04:53;99467.88;;;34.72;31.63
44103;BME280;29769;42.178;24.742;2022-09-09T14:07:40;99467.03;;;35.46;30.33
44103;BME280;29769;42.178;24.742;2022-09-09T14:10:26;99477.91;;;34.94;31.03
44103;BME280;29769;42.178;24.742;2022-09-09T14:13:11;99469.19;;;33.91;32.66
44103;BME280;29769;42.178;24.742;2022-09-09T14:15:56;99469.03;;;32.89;34.49
44103;BME280;29769;42.178;24.742;2022-09-09T14:18:41;99462.91;;;32.05;36.14
44103;BME280;29769;42.178;24.742;2022-09-09T14:21:27;99471.41;;;31.60;36.97
44103;BME280;29769;42.178;24.742;2022-09-09T14:24:12;99464.47;;;31.65;37.17
44103;BME280;29769;42.178;24.742;2022-09-09T14:26:56;99470.31;;;31.01;38.84
44103;BME280;29769;42.178;24.742;2022-09-09T14:29:41;99465.56;;;30.85;39.49
44103;BME280;29769;42.178;24.742;2022-09-09T14:32:27;99462.19;;;30.83;39.62
44103;BME280;29769;42.178;24.742;2022-09-09T14:35:13;99451.41;;;31.00;39.33
44103;BME280;29769;42.178;24.742;2022-09-09T14:37:58;99445.88;;;31.01;39.21
44103;BME280;29769;42.178;24.742;2022-09-09T14:40:44;99466.13;;;30.71;39.77
44103;BME280;29769;42.178;24.742;2022-09-09T14:43:29;99460.94;;;30.42;40.21
44103;BME280;29769;42.178;24.742;2022-09-09T14:46:17;99455.66;;;30.41;40.80
44103;BME280;29769;42.178;24.742;2022-09-09T14:49:02;99459.78;;;30.00;41.52
44103;BME280;29769;42.178;24.742;2022-09-09T14:51:46;99459.88;;;30.08;41.44
44103;BME280;29769;42.178;24.742;2022-09-09T14:54:31;99444.97;;;29.94;41.36
44103;BME280;29769;42.178;24.742;2022-09-09T14:57:16;99448.56;;;29.85;41.85
44103;BME280;29769;42.178;24.742;2022-09-09T15:00:02;99438.06;;;29.45;43.69
44103;BME280;29769;42.178;24.742;2022-09-09T15:02:51;99455.97;;;29.19;44.99
44103;BME280;29769;42.178;24.742;2022-09-09T15:05:36;99450.56;;;29.19;45.59
44103;BME280;29769;42.178;24.742;2022-09-09T15:08:20;99446.00;;;29.10;45.47
44103;BME280;29769;42.178;24.742;2022-09-09T15:11:05;99441.78;;;28.98;45.45
44103;BME280;29769;42.178;24.742;2022-09-09T15:13:53;99450.47;;;28.82;46.44
44103;BME280;29769;42.178;24.742;2022-09-09T15:16:39;99447.31;;;28.67;46.91
44103;BME280;29769;42.178;24.742;2022-09-09T15:19:24;99456.75;;;28.54;47.48
44103;BME280;29769;42.178;24.742;2022-09-09T15:22:08;99451.06;;;28.47;47.58
44103;BME280;29769;42.178;24.742;2022-09-09T15:24:53;99449.63;;;28.43;47.21
44103;BME280;29769;42.178;24.742;2022-09-09T15:27:38;99442.66;;;28.41;46.88
44103;BME280;29769;42.178;24.742;2022-09-09T15:30:23;99445.34;;;28.21;48.09
44103;BME280;29769;42.178;24.742;2022-09-09T15:33:08;99439.94;;;28.12;48.53
44103;BME280;29769;42.178;24.742;2022-09-09T15:35:52;99438.44;;;28.08;48.84
44103;BME280;29769;42.178;24.742;2022-09-09T15:38:37;99432.31;;;27.96;48.99
44103;BME280;29769;42.178;24.742;2022-09-09T15:41:22;99434.56;;;27.81;49.72
44103;BME280;29769;42.178;24.742;2022-09-09T15:44:08;99435.53;;;27.61;51.18
44103;BME280;29769;42.178;24.742;2022-09-09T15:46:52;99441.47;;;27.55;51.67
44103;BME280;29769;42.178;24.742;2022-09-09T15:49:38;99429.59;;;27.47;52.59
44103;BME280;29769;42.178;24.742;2022-09-09T15:52:23;99434.84;;;27.38;52.74
44103;BME280;29769;42.178;24.742;2022-09-09T15:55:08;99436.50;;;27.30;53.03
44103;BME280;29769;42.178;24.742;2022-09-09T15:57:52;99439.28;;;27.19;53.77
44103;BME280;29769;42.178;24.742;2022-09-09T16:00:37;99431.00;;;27.11;54.73
44103;BME280;29769;42.178;24.742;2022-09-09T16:03:23;99438.31;;;26.99;55.47
44103;BME280;29769;42.178;24.742;2022-09-09T16:06:08;99434.16;;;26.95;55.92
44103;BME280;29769;42.178;24.742;2022-09-09T16:08:53;99432.91;;;26.99;56.53
44103;BME280;29769;42.178;24.742;2022-09-09T16:11:38;99439.44;;;26.96;56.52
44103;BME280;29769;42.178;24.742;2022-09-09T16:14:23;99444.09;;;26.94;56.92
44103;BME280;29769;42.178;24.742;2022-09-09T16:17:09;99441.81;;;26.90;56.64
44103;BME280;29769;42.178;24.742;2022-09-09T16:19:55;99441.97;;;26.77;56.97
44103;BME280;29769;42.178;24.742;2022-09-09T16:22:42;99443.63;;;26.69;57.72
44103;BME280;29769;42.178;24.742;2022-09-09T16:25:26;99440.56;;;26.62;58.35
44103;BME280;29769;42.178;24.742;2022-09-09T16:28:11;99439.13;;;26.58;58.41
44103;BME280;29769;42.178;24.742;2022-09-09T16:30:56;99437.50;;;26.46;58.65
44103;BME280;29769;42.178;24.742;2022-09-09T16:33:42;99437.78;;;26.32;59.74
44103;BME280;29769;42.178;24.742;2022-09-09T16:36:28;99429.75;;;26.21;59.87
44103;BME280;29769;42.178;24.742;2022-09-09T16:39:17;99447.84;;;26.19;59.46
44103;BME280;29769;42.178;24.742;2022-09-09T16:42:02;99440.28;;;26.12;59.66
44103;BME280;29769;42.178;24.742;2022-09-09T16:44:47;99433.44;;;26.08;60.00
44103;BME280;29769;42.178;24.742;2022-09-09T16:47:34;99449.00;;;26.05;60.60
44103;BME280;29769;42.178;24.742;2022-09-09T16:50:19;99446.09;;;25.97;61.10
44103;BME280;29769;42.178;24.742;2022-09-09T16:53:03;99446.72;;;25.89;62.07
44103;BME280;29769;42.178;24.742;2022-09-09T16:55:51;99444.16;;;25.77;62.81
44103;BME280;29769;42.178;24.742;2022-09-09T16:58:35;99441.50;;;25.65;63.94